Indianapolis, Indiana
Traffic Map
Current Weather Conditions
Indianapolis, Indiana
Overcast
Overcast
58°
Feels Like: 58°
Wind Chill: 58° Ceiling: 12000
Heat Index: 58° Visibility: 10mi
Dew Point: 31° Wind: 12mph
Humidity: 36% Direction: 60° (ENE)
Pressure: 30.26in Gusts: 0mph
Raw Report DataKIND 221554Z 06010KT 10SM BKN120 OVC230 14/M01 A3026 RMK AO2 SLP247 T01441006
Traffic Incident Summary
Active as of:
Severity:
Category:
InformationThere was an issue retrieving the traffic information for this location. Please try a different location or try again shortly.
Advertisements